createdAt,value
2017-04-21T00:00:06.362Z,55.1
2017-04-21T00:10:06.394Z,54.6
2017-04-21T00:20:06.399Z,54.6
2017-04-21T00:30:06.360Z,54.6
2017-04-21T00:40:06.397Z,54.1
2017-04-21T00:50:06.362Z,54.1
2017-04-21T01:00:06.363Z,54.6
2017-04-21T01:10:06.363Z,54.1
2017-04-21T01:20:06.360Z,54.1
2017-04-21T01:30:06.369Z,54.1
2017-04-21T01:40:06.392Z,54.1
2017-04-21T01:50:06.359Z,54.1
2017-04-21T02:00:06.360Z,54.1
2017-04-21T02:10:06.358Z,54.1
2017-04-21T02:20:06.357Z,53.5
2017-04-21T02:30:06.361Z,54.1
2017-04-21T02:40:06.397Z,54.1
2017-04-21T02:50:06.360Z,54.1
2017-04-21T03:00:06.356Z,54.1
2017-04-21T03:10:06.389Z,53.5
2017-04-21T03:20:06.373Z,54.1
2017-04-21T03:30:06.388Z,53.5
2017-04-21T03:40:06.389Z,54.1
2017-04-21T03:50:06.360Z,54.1
2017-04-21T04:00:06.357Z,54.1
2017-04-21T04:10:04.373Z,54.1
2017-04-21T04:20:06.357Z,53.5
2017-04-21T04:30:06.357Z,54.1
2017-04-21T04:40:06.359Z,54.1
2017-04-21T04:50:06.398Z,54.1
2017-04-21T05:00:04.768Z,54.1
2017-04-21T05:10:06.360Z,53.5
2017-04-21T05:20:06.364Z,53.5
2017-04-21T05:30:06.363Z,53.5
2017-04-21T05:40:06.367Z,53.5
2017-04-21T05:50:06.366Z,53.5
2017-04-21T06:00:06.386Z,53.5
2017-04-21T06:10:06.395Z,53
2017-04-21T06:20:06.363Z,53.5
2017-04-21T06:30:06.395Z,54.1
2017-04-21T06:40:06.359Z,54.1
2017-04-21T06:50:06.361Z,54.1
2017-04-21T07:00:06.361Z,54.1
2017-04-21T07:10:06.394Z,54.1
2017-04-21T07:20:06.359Z,54.1
2017-04-21T07:30:06.394Z,53.5
2017-04-21T07:40:06.369Z,54.1
2017-04-21T07:50:06.385Z,54.1
2017-04-21T08:00:06.369Z,54.1
2017-04-21T08:10:06.398Z,54.1
2017-04-21T08:20:06.398Z,54.1
2017-04-21T08:30:04.587Z,54.1
2017-04-21T08:40:06.357Z,54.1
2017-04-21T08:50:06.359Z,54.1
2017-04-21T09:00:06.357Z,54.6
2017-04-21T09:10:06.360Z,54.1
2017-04-21T09:20:04.641Z,54.6
2017-04-21T09:30:06.359Z,55.1
2017-04-21T09:40:06.392Z,55.1
2017-04-21T09:50:06.397Z,55.1
2017-04-21T10:00:06.391Z,55.7
2017-04-21T10:10:04.171Z,55.7
2017-04-21T10:20:06.359Z,55.7
2017-04-21T10:30:06.391Z,56.2
2017-04-21T10:40:06.361Z,56.2
2017-04-21T10:50:06.433Z,56.2
2017-04-21T11:00:06.360Z,56.2
2017-04-21T11:10:06.366Z,56.2
2017-04-21T11:20:06.360Z,56.2
2017-04-21T11:30:06.356Z,56.2
2017-04-21T11:40:06.394Z,56.2
2017-04-21T11:50:06.361Z,56.2
2017-04-21T12:00:06.360Z,56.8
2017-04-21T12:10:06.395Z,56.2
2017-04-21T12:20:06.393Z,56.2
2017-04-21T12:30:06.394Z,56.8
2017-04-21T12:40:06.357Z,56.2
2017-04-21T12:50:06.367Z,56.2
2017-04-21T13:00:06.361Z,56.8
2017-04-21T13:10:06.402Z,57.3
2017-04-21T13:20:06.365Z,57.3
2017-04-21T13:30:06.359Z,57.3
2017-04-21T13:40:06.361Z,57.3
2017-04-21T13:50:06.361Z,57.3
2017-04-21T14:00:06.394Z,57.3
2017-04-21T14:10:06.394Z,57.3
2017-04-21T14:20:06.401Z,56.8
2017-04-21T14:30:06.392Z,57.3
2017-04-21T14:40:06.395Z,57.3
2017-04-21T14:50:06.359Z,57.3
2017-04-21T15:00:06.362Z,57.3
2017-04-21T15:10:06.398Z,57.3
2017-04-21T15:20:03.924Z,57.3
2017-04-21T15:30:06.412Z,57.3
2017-04-21T15:40:06.398Z,57.3
2017-04-21T15:50:06.399Z,56.8
2017-04-21T16:00:06.395Z,57.3
2017-04-21T16:10:02.773Z,57.3
2017-04-21T16:20:06.365Z,57.3
2017-04-21T16:30:06.398Z,57.3
2017-04-21T16:40:06.367Z,57.3
2017-04-21T16:50:06.361Z,57.3
2017-04-21T17:00:06.430Z,57.3
2017-04-21T17:10:06.364Z,57.3
2017-04-21T17:20:06.405Z,57.3
2017-04-21T17:30:06.486Z,57.3
2017-04-21T17:40:06.364Z,57.3
2017-04-21T17:50:06.391Z,57.3
2017-04-21T18:00:06.359Z,57.3
2017-04-21T18:10:06.395Z,56.8
2017-04-21T18:20:06.376Z,57.3
2017-04-21T18:30:06.365Z,57.3
2017-04-21T18:40:06.404Z,57.3
2017-04-21T18:50:06.366Z,57.3
2017-04-21T19:00:06.355Z,56.8
2017-04-21T19:10:06.362Z,57.3
2017-04-21T19:20:06.370Z,56.2
2017-04-21T19:30:06.399Z,57.3
2017-04-21T19:40:06.362Z,57.3
2017-04-21T19:50:06.355Z,56.8
2017-04-21T20:00:06.369Z,57.3
2017-04-21T20:10:06.381Z,56.2
2017-04-21T20:20:06.397Z,56.8
2017-04-21T20:30:06.404Z,57.3
2017-04-21T20:40:06.401Z,56.2
2017-04-21T20:50:06.882Z,56.2
2017-04-21T21:00:06.368Z,57.3
2017-04-21T21:10:06.402Z,57.3
2017-04-21T21:20:06.362Z,57.3
2017-04-21T21:30:06.406Z,56.2
2017-04-21T21:40:06.368Z,57.3
2017-04-21T21:50:06.365Z,56.2
2017-04-21T22:00:06.393Z,56.2
2017-04-21T22:10:06.365Z,56.2
2017-04-21T22:20:06.362Z,56.2
2017-04-21T22:30:06.359Z,56.2
2017-04-21T22:40:06.409Z,56.2
2017-04-21T22:50:06.359Z,56.2
2017-04-21T23:00:06.361Z,56.2
2017-04-21T23:10:06.360Z,56.2
2017-04-21T23:20:06.361Z,55.7
2017-04-21T23:30:06.846Z,55.7
2017-04-21T23:40:06.383Z,56.2
2017-04-21T23:50:06.357Z,55.7
